createdAt,value
2022-07-26T00:02:25.175Z,92.45
2022-07-26T00:04:53.110Z,93.00
2022-07-26T00:07:20.367Z,93.25
2022-07-26T00:09:48.543Z,93.00
2022-07-26T00:12:16.212Z,93.10
2022-07-26T00:14:44.159Z,93.21
2022-07-26T00:17:11.510Z,93.16
2022-07-26T00:19:38.970Z,93.01
2022-07-26T00:22:25.043Z,93.49
2022-07-26T00:24:52.616Z,93.50
2022-07-26T00:27:19.848Z,93.47
2022-07-26T00:29:47.364Z,94.23
2022-07-26T00:32:15.019Z,94.11
2022-07-26T00:34:42.492Z,94.04
2022-07-26T00:37:09.774Z,94.73
2022-07-26T00:39:37.427Z,94.84
2022-07-26T00:42:04.606Z,94.76
2022-07-26T00:44:45.602Z,95.23
2022-07-26T00:47:13.576Z,95.26
2022-07-26T00:49:41.834Z,95.80
2022-07-26T00:52:10.060Z,96.09
2022-07-26T00:54:38.851Z,96.13
2022-07-26T00:57:06.809Z,96.66
2022-07-26T00:59:34.049Z,97.18
2022-07-26T01:02:04.440Z,97.16
2022-07-26T01:04:31.909Z,97.52
2022-07-26T01:06:59.661Z,97.79
2022-07-26T01:09:27.273Z,97.55
2022-07-26T01:11:54.531Z,97.86
2022-07-26T01:14:24.631Z,98.14
2022-07-26T01:16:52.579Z,98.62
2022-07-26T01:19:20.384Z,98.51
2022-07-26T01:21:48.064Z,98.52
2022-07-26T01:24:15.550Z,98.79
2022-07-26T01:26:42.729Z,99.52
2022-07-26T01:29:10.294Z,99.29
2022-07-26T01:31:37.819Z,99.77
2022-07-26T01:34:05.327Z,99.79
2022-07-26T01:36:33.214Z,99.94
2022-07-26T01:39:00.639Z,100.00
2022-07-26T01:41:37.880Z,100.00
2022-07-26T01:44:08.030Z,100.00
2022-07-26T01:46:36.313Z,100.00
2022-07-26T01:49:04.695Z,100.00
2022-07-26T01:51:32.321Z,100.00
2022-07-26T01:53:59.541Z,100.00
2022-07-26T01:56:26.811Z,100.00
2022-07-26T01:58:54.340Z,100.00
2022-07-26T02:01:38.163Z,100.00
2022-07-26T02:04:09.368Z,100.00
2022-07-26T02:06:37.375Z,100.00
2022-07-26T02:09:07.525Z,100.00
2022-07-26T02:11:37.153Z,100.00
2022-07-26T02:14:04.943Z,100.00
2022-07-26T02:16:32.427Z,100.00
2022-07-26T02:18:59.844Z,100.00
2022-07-26T02:21:27.056Z,100.00
2022-07-26T02:23:54.286Z,100.00
2022-07-26T02:26:21.652Z,100.00
2022-07-26T02:28:48.929Z,100.00
2022-07-26T02:31:16.208Z,100.00
2022-07-26T02:33:43.709Z,100.00
2022-07-26T02:36:10.710Z,100.00
2022-07-26T02:38:37.911Z,100.00
2022-07-26T02:41:06.368Z,100.00
2022-07-26T02:43:33.729Z,100.00
2022-07-26T02:46:01.564Z,100.00
2022-07-26T02:48:33.095Z,100.00
2022-07-26T02:51:00.307Z,100.00
2022-07-26T02:53:28.025Z,100.00
2022-07-26T02:55:55.433Z,100.00
2022-07-26T02:58:24.978Z,100.00
2022-07-26T03:00:52.050Z,100.00
2022-07-26T03:03:19.549Z,100.00
2022-07-26T03:05:46.665Z,100.00
2022-07-26T03:08:13.822Z,100.00
2022-07-26T03:10:41.170Z,100.00
2022-07-26T03:13:08.435Z,100.00
2022-07-26T03:15:35.650Z,100.00
2022-07-26T03:18:03.210Z,100.00
2022-07-26T03:20:30.502Z,100.00
2022-07-26T03:22:57.661Z,100.00
2022-07-26T03:25:24.982Z,100.00
2022-07-26T03:27:57.016Z,100.00
2022-07-26T03:30:26.567Z,100.00
2022-07-26T03:32:54.444Z,100.00
2022-07-26T03:35:21.822Z,100.00
2022-07-26T03:37:49.196Z,100.00
2022-07-26T03:40:16.692Z,100.00
2022-07-26T03:42:45.328Z,100.00
2022-07-26T03:45:14.070Z,100.00
2022-07-26T03:47:41.916Z,100.00
2022-07-26T03:50:11.060Z,100.00
2022-07-26T03:52:38.602Z,100.00
2022-07-26T03:55:25.718Z,100.00
2022-07-26T03:57:53.329Z,100.00
2022-07-26T04:00:20.487Z,100.00
2022-07-26T04:02:47.840Z,100.00
2022-07-26T04:05:15.368Z,100.00
2022-07-26T04:07:43.862Z,100.00
2022-07-26T04:10:21.615Z,100.00
2022-07-26T04:12:49.926Z,100.00
2022-07-26T04:15:19.114Z,100.00
2022-07-26T04:17:48.525Z,100.00
2022-07-26T04:20:16.045Z,100.00
2022-07-26T04:22:43.449Z,100.00
2022-07-26T04:25:11.303Z,100.00
2022-07-26T04:27:38.550Z,100.00
2022-07-26T04:30:12.397Z,100.00
2022-07-26T04:32:42.715Z,100.00
2022-07-26T04:35:10.012Z,100.00
2022-07-26T04:37:41.427Z,100.00
2022-07-26T04:40:10.330Z,100.00
2022-07-26T04:42:40.127Z,99.58
2022-07-26T04:45:08.472Z,99.35
2022-07-26T04:47:36.915Z,98.82
2022-07-26T04:50:05.136Z,98.05
2022-07-26T04:52:32.581Z,98.14
2022-07-26T04:55:01.352Z,98.90
2022-07-26T04:57:28.605Z,98.95
2022-07-26T05:00:16.725Z,97.96
2022-07-26T05:02:43.323Z,95.83
2022-07-26T05:05:10.619Z,94.62
2022-07-26T05:07:46.111Z,95.22
2022-07-26T05:10:14.685Z,93.33
2022-07-26T05:12:41.850Z,92.81
2022-07-26T05:15:14.122Z,92.25
2022-07-26T05:17:43.087Z,91.06
2022-07-26T05:20:12.532Z,91.12
2022-07-26T05:22:39.955Z,88.95
2022-07-26T05:25:07.929Z,87.58
2022-07-26T05:27:35.374Z,87.09
2022-07-26T05:30:02.473Z,85.46
2022-07-26T05:32:30.089Z,83.87
2022-07-26T05:34:57.499Z,83.89
2022-07-26T05:37:24.771Z,84.89
2022-07-26T05:39:52.145Z,82.28
2022-07-26T05:42:19.467Z,81.50
2022-07-26T05:44:46.594Z,81.12
2022-07-26T05:47:14.362Z,80.97
2022-07-26T05:49:41.589Z,80.14
2022-07-26T05:52:09.166Z,76.94
2022-07-26T05:54:36.562Z,78.92
2022-07-26T05:57:04.734Z,77.13
2022-07-26T05:59:33.034Z,74.86
2022-07-26T06:02:00.546Z,76.18
2022-07-26T06:16:18.705Z,75.77
2022-07-26T06:18:46.131Z,76.88
2022-07-26T06:21:13.158Z,75.53
2022-07-26T06:23:40.867Z,75.15
2022-07-26T06:26:08.327Z,75.15
2022-07-26T06:28:36.812Z,75.81
2022-07-26T06:31:03.871Z,76.42
2022-07-26T06:33:31.353Z,74.45
2022-07-26T06:35:58.754Z,73.42
2022-07-26T06:38:25.922Z,73.09
2022-07-26T06:40:53.722Z,71.03
2022-07-26T06:43:21.205Z,70.85
2022-07-26T06:45:49.484Z,70.64
2022-07-26T06:48:17.085Z,72.13
2022-07-26T06:50:44.924Z,70.22
2022-07-26T06:53:12.237Z,70.44
2022-07-26T06:55:39.537Z,70.36
2022-07-26T06:58:06.872Z,69.66
2022-07-26T07:00:34.238Z,67.03
2022-07-26T07:03:01.694Z,67.10
2022-07-26T07:05:31.202Z,64.47
2022-07-26T07:07:58.734Z,65.28
2022-07-26T07:10:26.200Z,65.29
2022-07-26T07:12:53.247Z,66.64
2022-07-26T07:15:21.059Z,65.08
2022-07-26T07:17:48.885Z,62.90
2022-07-26T07:20:16.083Z,66.06
2022-07-26T07:22:43.306Z,62.47
2022-07-26T07:25:27.591Z,61.94
2022-07-26T07:27:59.370Z,61.08
2022-07-26T07:30:27.901Z,61.42
2022-07-26T07:32:56.559Z,65.72
2022-07-26T07:35:24.337Z,61.89
2022-07-26T07:37:59.270Z,60.54
2022-07-26T07:40:26.481Z,60.48
2022-07-26T07:42:53.688Z,61.53
2022-07-26T07:45:21.064Z,62.28
2022-07-26T07:47:48.748Z,64.00
2022-07-26T07:50:15.917Z,61.48
2022-07-26T07:52:45.777Z,66.98
2022-07-26T07:55:40.698Z,66.12
2022-07-26T07:58:00.442Z,61.95
2022-07-26T08:00:27.812Z,62.93
2022-07-26T08:02:55.728Z,64.39
2022-07-26T08:05:23.276Z,66.19
2022-07-26T08:07:50.585Z,66.91
2022-07-26T08:10:20.426Z,69.26
2022-07-26T08:12:51.177Z,67.49
2022-07-26T08:15:19.678Z,66.06
2022-07-26T08:17:54.690Z,66.71
2022-07-26T08:20:23.697Z,67.60
2022-07-26T08:22:53.225Z,70.71
2022-07-26T08:25:20.897Z,68.24
2022-07-26T08:28:03.113Z,69.36
2022-07-26T08:30:32.219Z,69.57
2022-07-26T08:32:59.666Z,70.69
2022-07-26T08:35:27.009Z,68.63
2022-07-26T08:37:54.457Z,65.73
2022-07-26T08:40:21.821Z,67.32
2022-07-26T08:42:58.462Z,69.50
2022-07-26T08:45:27.788Z,66.04
2022-07-26T08:48:16.692Z,65.22
2022-07-26T08:50:43.116Z,64.66
2022-07-26T08:53:12.092Z,65.68
2022-07-26T08:58:26.889Z,64.80
2022-07-26T09:01:08.967Z,67.96
2022-07-26T09:03:40.168Z,67.84
2022-07-26T09:06:16.086Z,62.87
2022-07-26T09:08:45.434Z,64.46
2022-07-26T09:11:33.264Z,64.44
2022-07-26T09:14:03.247Z,66.83
2022-07-26T09:16:31.050Z,65.58
2022-07-26T09:19:19.585Z,68.15
2022-07-26T09:21:47.176Z,70.17
2022-07-26T09:24:30.443Z,70.24
2022-07-26T09:27:00.121Z,71.09
2022-07-26T09:29:28.667Z,68.34
2022-07-26T09:32:20.036Z,67.33
2022-07-26T09:34:59.110Z,65.81
2022-07-26T09:37:37.388Z,63.47
2022-07-26T09:40:08.083Z,64.05
2022-07-26T09:42:35.665Z,67.62
2022-07-26T09:45:04.736Z,68.43
2022-07-26T09:47:37.758Z,66.79
2022-07-26T09:50:12.235Z,67.82
2022-07-26T09:52:39.770Z,68.11
2022-07-26T09:55:08.572Z,67.90
2022-07-26T09:57:35.852Z,68.41
2022-07-26T10:00:05.926Z,68.55
2022-07-26T10:02:35.475Z,70.16
2022-07-26T10:05:02.748Z,71.37
2022-07-26T10:07:30.342Z,73.90
2022-07-26T10:10:04.613Z,73.13
2022-07-26T10:12:33.335Z,73.02
2022-07-26T10:15:00.684Z,73.22
2022-07-26T10:17:31.447Z,73.76
2022-07-26T10:20:04.215Z,70.42
2022-07-26T10:22:52.201Z,72.23
2022-07-26T10:25:19.989Z,72.80
2022-07-26T10:27:55.371Z,74.25
2022-07-26T10:30:28.845Z,74.80
2022-07-26T10:33:03.503Z,72.11
2022-07-26T10:35:36.427Z,73.74
2022-07-26T10:38:04.801Z,73.71
2022-07-26T10:40:32.491Z,77.44
2022-07-26T10:46:18.605Z,78.44
2022-07-26T10:49:00.139Z,74.44
2022-07-26T10:51:29.879Z,78.23
2022-07-26T10:54:02.194Z,74.11
2022-07-26T10:56:33.440Z,74.92
2022-07-26T10:59:02.919Z,74.70
2022-07-26T11:01:45.470Z,73.17
2022-07-26T11:04:19.817Z,74.33
2022-07-26T11:06:47.554Z,75.79
2022-07-26T11:09:15.061Z,77.48
2022-07-26T11:11:46.657Z,79.74
2022-07-26T11:14:17.077Z,78.18
2022-07-26T11:16:50.102Z,76.31
2022-07-26T11:19:18.600Z,79.21
2022-07-26T11:21:49.154Z,77.89
2022-07-26T11:24:16.399Z,78.30
2022-07-26T11:26:45.095Z,77.79
2022-07-26T11:29:16.776Z,80.74
2022-07-26T11:31:50.330Z,79.31
2022-07-26T11:34:25.416Z,78.58
2022-07-26T11:36:55.542Z,80.16
2022-07-26T11:39:27.360Z,80.04
2022-07-26T11:42:08.596Z,80.98
2022-07-26T11:44:36.315Z,79.24
2022-07-26T11:47:25.699Z,80.98
2022-07-26T11:52:41.447Z,83.28
2022-07-26T11:55:09.244Z,82.19
2022-07-26T11:57:36.584Z,82.87
2022-07-26T12:00:04.934Z,85.21
2022-07-26T12:02:55.781Z,84.61
2022-07-26T12:05:23.896Z,85.78
2022-07-26T12:08:04.655Z,90.48
2022-07-26T12:10:32.396Z,93.11
2022-07-26T12:13:12.596Z,97.49
2022-07-26T12:15:53.102Z,100.00
2022-07-26T12:18:31.097Z,100.00
2022-07-26T12:21:09.171Z,100.00
2022-07-26T12:23:49.719Z,100.00
2022-07-26T12:26:43.393Z,100.00
2022-07-26T12:29:29.300Z,100.00
2022-07-26T12:32:15.413Z,100.00
2022-07-26T12:34:56.659Z,100.00
2022-07-26T12:37:33.731Z,100.00
2022-07-26T12:40:12.844Z,100.00
2022-07-26T12:43:00.265Z,100.00
2022-07-26T12:45:29.195Z,100.00
2022-07-26T12:47:58.407Z,100.00
2022-07-26T12:50:28.279Z,100.00
2022-07-26T12:53:03.402Z,100.00
2022-07-26T12:55:31.729Z,100.00
2022-07-26T12:57:59.952Z,100.00
2022-07-26T13:00:29.616Z,100.00
2022-07-26T13:02:57.954Z,100.00
2022-07-26T13:05:25.059Z,100.00
2022-07-26T13:07:52.651Z,100.00
2022-07-26T13:10:33.014Z,100.00
2022-07-26T13:13:01.213Z,100.00
2022-07-26T13:15:37.070Z,100.00
2022-07-26T13:18:08.835Z,100.00
2022-07-26T13:20:38.123Z,100.00
2022-07-26T13:23:06.255Z,100.00
2022-07-26T13:25:38.337Z,100.00
2022-07-26T13:28:08.649Z,100.00
2022-07-26T13:30:41.165Z,100.00
2022-07-26T13:33:09.299Z,100.00
2022-07-26T13:35:39.314Z,100.00
2022-07-26T13:38:09.163Z,100.00
2022-07-26T13:40:36.905Z,100.00
2022-07-26T13:43:04.796Z,100.00
2022-07-26T13:45:31.929Z,100.00
2022-07-26T13:47:59.908Z,100.00
2022-07-26T13:50:28.116Z,100.00
2022-07-26T13:52:56.465Z,100.00
2022-07-26T13:55:25.593Z,100.00
2022-07-26T13:57:56.829Z,100.00
2022-07-26T14:00:29.469Z,100.00
2022-07-26T14:03:00.422Z,100.00
2022-07-26T14:05:28.147Z,100.00
2022-07-26T14:07:55.789Z,100.00
2022-07-26T14:10:23.832Z,100.00
2022-07-26T14:12:52.088Z,100.00
2022-07-26T14:15:22.569Z,100.00
2022-07-26T14:17:51.708Z,100.00
2022-07-26T14:20:19.354Z,100.00
2022-07-26T14:22:47.357Z,100.00
2022-07-26T14:25:14.888Z,100.00
2022-07-26T14:27:42.234Z,100.00
2022-07-26T14:30:09.895Z,100.00
2022-07-26T14:35:05.173Z,100.00
2022-07-26T14:37:43.157Z,100.00
2022-07-26T14:40:15.010Z,100.00
2022-07-26T14:42:42.407Z,100.00
2022-07-26T14:45:10.689Z,100.00
2022-07-26T14:47:38.571Z,100.00
2022-07-26T14:50:08.048Z,100.00
2022-07-26T14:52:43.862Z,100.00
2022-07-26T14:55:12.514Z,100.00
2022-07-26T14:57:40.500Z,100.00
2022-07-26T15:00:10.312Z,100.00
2022-07-26T15:02:45.259Z,100.00
2022-07-26T15:05:14.108Z,100.00
2022-07-26T15:07:42.082Z,100.00
2022-07-26T15:10:11.713Z,100.00
2022-07-26T15:12:39.256Z,100.00
2022-07-26T15:15:07.964Z,100.00
2022-07-26T15:17:35.590Z,100.00
2022-07-26T15:20:04.580Z,100.00
2022-07-26T15:22:32.034Z,100.00
2022-07-26T15:24:59.250Z,100.00
2022-07-26T15:27:26.417Z,100.00
2022-07-26T15:29:56.194Z,100.00
2022-07-26T15:32:25.663Z,100.00
2022-07-26T15:34:53.902Z,100.00
2022-07-26T15:37:21.474Z,100.00
2022-07-26T15:39:48.550Z,100.00
2022-07-26T15:42:19.158Z,100.00
2022-07-26T15:44:48.975Z,100.00
2022-07-26T15:47:43.424Z,100.00
2022-07-26T15:50:07.374Z,100.00
2022-07-26T15:52:38.512Z,100.00
2022-07-26T15:55:07.306Z,100.00
2022-07-26T15:57:35.432Z,100.00
2022-07-26T16:00:11.236Z,100.00
2022-07-26T16:02:40.983Z,100.00
2022-07-26T16:05:08.918Z,100.00
2022-07-26T16:07:36.173Z,100.00
2022-07-26T16:10:04.351Z,100.00
2022-07-26T16:12:31.620Z,100.00
2022-07-26T16:14:58.950Z,100.00
2022-07-26T16:17:26.391Z,100.00
2022-07-26T16:19:53.627Z,100.00
2022-07-26T16:22:20.835Z,100.00
2022-07-26T16:24:48.511Z,100.00
2022-07-26T16:27:15.649Z,100.00
2022-07-26T16:29:42.796Z,100.00
2022-07-26T16:32:12.061Z,100.00
2022-07-26T16:34:39.414Z,100.00
2022-07-26T16:37:06.777Z,100.00
2022-07-26T16:39:34.080Z,100.00
2022-07-26T16:42:06.811Z,100.00
2022-07-26T16:44:36.377Z,100.00
2022-07-26T16:47:04.604Z,100.00
2022-07-26T16:49:31.883Z,100.00
2022-07-26T16:51:59.295Z,100.00
2022-07-26T16:54:26.861Z,100.00
2022-07-26T16:56:54.112Z,100.00
2022-07-26T16:59:21.553Z,100.00
2022-07-26T17:01:49.028Z,100.00
2022-07-26T17:04:17.369Z,100.00
2022-07-26T17:06:56.648Z,100.00
2022-07-26T17:09:32.065Z,100.00
2022-07-26T17:12:04.265Z,100.00
2022-07-26T17:14:33.844Z,100.00
2022-07-26T17:17:01.148Z,100.00
2022-07-26T17:19:28.464Z,100.00
2022-07-26T17:21:56.052Z,100.00
2022-07-26T17:24:23.132Z,100.00
2022-07-26T17:26:50.365Z,100.00
2022-07-26T17:29:17.883Z,100.00
2022-07-26T17:31:45.128Z,100.00
2022-07-26T17:34:12.296Z,100.00
2022-07-26T17:36:39.789Z,100.00
2022-07-26T17:39:14.968Z,100.00
2022-07-26T17:41:48.994Z,100.00
2022-07-26T17:44:16.255Z,100.00
2022-07-26T17:46:43.487Z,100.00
2022-07-26T17:49:11.781Z,100.00
2022-07-26T17:51:39.454Z,100.00
2022-07-26T17:54:06.725Z,100.00
2022-07-26T17:56:34.678Z,100.00
2022-07-26T17:59:02.199Z,100.00
2022-07-26T18:01:29.486Z,100.00
2022-07-26T18:03:57.000Z,100.00
2022-07-26T18:06:24.121Z,100.00
2022-07-26T18:08:51.326Z,100.00
2022-07-26T18:11:18.932Z,100.00
2022-07-26T18:13:46.099Z,100.00
2022-07-26T18:16:14.251Z,100.00
2022-07-26T18:18:41.795Z,100.00
2022-07-26T18:21:09.119Z,100.00
2022-07-26T18:23:36.232Z,100.00
2022-07-26T18:26:04.014Z,100.00
2022-07-26T18:28:31.468Z,100.00
2022-07-26T18:30:58.663Z,100.00
2022-07-26T18:33:26.515Z,100.00
2022-07-26T18:35:53.837Z,100.00
2022-07-26T18:38:21.014Z,100.00
2022-07-26T18:40:48.475Z,100.00
2022-07-26T18:43:15.640Z,100.00
2022-07-26T18:45:42.758Z,100.00
2022-07-26T18:48:10.597Z,100.00
2022-07-26T18:50:40.030Z,100.00
2022-07-26T18:53:08.502Z,100.00
2022-07-26T18:55:35.930Z,100.00
2022-07-26T18:58:06.685Z,100.00
2022-07-26T19:00:34.366Z,100.00
2022-07-26T19:03:01.785Z,100.00
2022-07-26T19:05:34.439Z,100.00
2022-07-26T19:08:03.960Z,100.00
2022-07-26T19:10:31.155Z,100.00
2022-07-26T19:12:58.745Z,100.00
2022-07-26T19:15:26.168Z,100.00
2022-07-26T19:17:54.351Z,100.00
2022-07-26T19:20:21.669Z,100.00
2022-07-26T19:22:51.090Z,100.00
2022-07-26T19:25:18.795Z,100.00
2022-07-26T19:27:46.053Z,100.00
2022-07-26T19:30:13.739Z,100.00
2022-07-26T19:32:41.060Z,100.00
2022-07-26T19:35:09.179Z,100.00
2022-07-26T19:37:36.773Z,100.00
2022-07-26T19:40:04.443Z,100.00
2022-07-26T19:42:32.642Z,100.00
2022-07-26T19:45:00.252Z,100.00
2022-07-26T19:47:29.809Z,100.00
2022-07-26T19:49:57.524Z,100.00
2022-07-26T19:52:25.088Z,100.00
2022-07-26T19:54:52.391Z,100.00
2022-07-26T19:57:19.910Z,100.00
2022-07-26T19:59:48.122Z,100.00
2022-07-26T20:02:15.866Z,100.00
2022-07-26T20:04:46.019Z,100.00
2022-07-26T20:07:19.426Z,100.00
2022-07-26T20:09:49.136Z,100.00
2022-07-26T20:12:18.122Z,100.00
2022-07-26T20:14:45.589Z,100.00
2022-07-26T20:17:13.254Z,100.00
2022-07-26T20:19:41.473Z,100.00
2022-07-26T20:22:08.914Z,100.00
2022-07-26T20:24:38.217Z,100.00
2022-07-26T20:27:07.103Z,100.00
2022-07-26T20:29:34.609Z,100.00
2022-07-26T20:32:02.031Z,100.00
2022-07-26T20:34:29.722Z,100.00
2022-07-26T20:36:57.294Z,100.00
2022-07-26T20:39:26.296Z,100.00
2022-07-26T20:41:54.050Z,100.00
2022-07-26T20:44:27.657Z,100.00
2022-07-26T20:46:56.046Z,100.00
2022-07-26T20:49:23.350Z,100.00
2022-07-26T20:51:50.588Z,100.00
2022-07-26T20:54:18.107Z,100.00
2022-07-26T20:56:45.519Z,100.00
2022-07-26T20:59:13.177Z,100.00
2022-07-26T21:01:41.156Z,100.00
2022-07-26T21:04:12.101Z,100.00
2022-07-26T21:06:39.472Z,100.00
2022-07-26T21:09:09.900Z,100.00
2022-07-26T21:11:38.910Z,100.00
2022-07-26T21:14:06.362Z,100.00
2022-07-26T21:16:34.028Z,100.00
2022-07-26T21:19:02.190Z,100.00
2022-07-26T21:21:29.552Z,100.00
2022-07-26T21:23:57.040Z,100.00
2022-07-26T21:26:24.381Z,100.00
2022-07-26T21:28:51.697Z,100.00
2022-07-26T21:31:19.097Z,100.00
2022-07-26T21:33:46.295Z,100.00
2022-07-26T21:36:14.461Z,100.00
2022-07-26T21:38:42.433Z,100.00
2022-07-26T21:41:13.410Z,100.00
2022-07-26T21:43:41.879Z,100.00
2022-07-26T21:46:12.726Z,100.00
2022-07-26T21:48:41.160Z,100.00
2022-07-26T21:51:08.418Z,100.00
2022-07-26T21:53:35.907Z,100.00
2022-07-26T21:56:05.604Z,100.00
2022-07-26T21:58:36.589Z,100.00
2022-07-26T22:01:06.528Z,100.00
2022-07-26T22:03:35.884Z,100.00
2022-07-26T22:06:03.563Z,100.00
2022-07-26T22:08:31.861Z,100.00
2022-07-26T22:10:59.081Z,100.00
2022-07-26T22:13:26.461Z,100.00
2022-07-26T22:15:53.914Z,100.00
2022-07-26T22:18:21.357Z,100.00
2022-07-26T22:20:49.775Z,100.00
2022-07-26T22:23:18.869Z,100.00
2022-07-26T22:25:46.126Z,100.00
2022-07-26T22:28:17.958Z,100.00
2022-07-26T22:30:46.600Z,100.00
2022-07-26T22:33:14.030Z,100.00
2022-07-26T22:35:41.247Z,100.00
2022-07-26T22:38:10.469Z,100.00
2022-07-26T22:40:39.220Z,100.00
2022-07-26T22:43:07.811Z,100.00
2022-07-26T22:45:35.539Z,100.00
2022-07-26T22:48:04.542Z,100.00
2022-07-26T22:50:32.490Z,100.00
2022-07-26T22:53:01.175Z,100.00
2022-07-26T22:55:28.818Z,100.00
2022-07-26T22:57:56.094Z,100.00
2022-07-26T23:00:23.591Z,100.00
2022-07-26T23:02:50.974Z,100.00
2022-07-26T23:05:18.375Z,100.00
2022-07-26T23:07:47.807Z,100.00
2022-07-26T23:10:16.718Z,100.00
2022-07-26T23:12:44.382Z,100.00
2022-07-26T23:15:12.308Z,100.00
2022-07-26T23:17:39.542Z,100.00
2022-07-26T23:20:08.490Z,100.00
2022-07-26T23:22:36.444Z,100.00
2022-07-26T23:25:05.017Z,100.00
2022-07-26T23:27:32.275Z,100.00
2022-07-26T23:29:59.571Z,100.00
2022-07-26T23:32:26.806Z,100.00
2022-07-26T23:34:54.038Z,100.00
2022-07-26T23:37:21.556Z,100.00
2022-07-26T23:39:48.699Z,100.00
2022-07-26T23:42:15.992Z,100.00
2022-07-26T23:44:43.245Z,100.00
2022-07-26T23:47:10.620Z,100.00
2022-07-26T23:49:37.880Z,100.00
2022-07-26T23:52:05.401Z,100.00
2022-07-26T23:54:32.706Z,100.00
2022-07-26T23:56:59.838Z,100.00
2022-07-26T23:59:27.270Z,100.00
